sensor_id;sensor_type;location;lat;lon;timestamp;P1;durP1;ratioP1;P2;durP2;ratioP2
80249;SDS011;69561;37.974;23.708;2023-08-20T00:02:02;2.33;;;1.90;;
80249;SDS011;69561;37.974;23.708;2023-08-20T00:04:32;2.65;;;1.95;;
80249;SDS011;69561;37.974;23.708;2023-08-20T00:07:02;2.33;;;2.00;;
80249;SDS011;69561;37.974;23.708;2023-08-20T00:09:28;2.55;;;1.88;;
80249;SDS011;69561;37.974;23.708;2023-08-20T00:11:55;2.22;;;1.83;;
80249;SDS011;69561;37.974;23.708;2023-08-20T00:14:21;2.13;;;1.92;;
80249;SDS011;69561;37.974;23.708;2023-08-20T00:17:23;1.80;;;1.52;;
80249;SDS011;69561;37.974;23.708;2023-08-20T00:19:52;2.83;;;1.92;;
80249;SDS011;69561;37.974;23.708;2023-08-20T00:22:20;2.97;;;2.30;;
80249;SDS011;69561;37.974;23.708;2023-08-20T00:24:47;2.92;;;2.08;;
80249;SDS011;69561;37.974;23.708;2023-08-20T00:27:13;2.90;;;2.08;;
80249;SDS011;69561;37.974;23.708;2023-08-20T00:29:39;1.98;;;1.70;;
80249;SDS011;69561;37.974;23.708;2023-08-20T00:32:04;2.40;;;1.70;;
80249;SDS011;69561;37.974;23.708;2023-08-20T00:34:30;2.83;;;2.10;;
80249;SDS011;69561;37.974;23.708;2023-08-20T00:36:56;1.70;;;1.60;;
80249;SDS011;69561;37.974;23.708;2023-08-20T00:39:21;1.90;;;1.70;;
80249;SDS011;69561;37.974;23.708;2023-08-20T00:41:47;2.05;;;1.80;;
80249;SDS011;69561;37.974;23.708;2023-08-20T00:44:13;2.53;;;2.00;;
80249;SDS011;69561;37.974;23.708;2023-08-20T00:46:39;2.08;;;1.80;;
80249;SDS011;69561;37.974;23.708;2023-08-20T00:49:05;2.55;;;1.80;;
80249;SDS011;69561;37.974;23.708;2023-08-20T00:51:32;1.80;;;1.70;;
80249;SDS011;69561;37.974;23.708;2023-08-20T00:53:59;1.90;;;1.80;;
80249;SDS011;69561;37.974;23.708;2023-08-20T00:56:25;2.78;;;1.98;;
80249;SDS011;69561;37.974;23.708;2023-08-20T00:58:52;2.78;;;2.00;;
80249;SDS011;69561;37.974;23.708;2023-08-20T01:01:20;1.92;;;1.60;;
80249;SDS011;69561;37.974;23.708;2023-08-20T01:03:46;2.20;;;1.70;;
80249;SDS011;69561;37.974;23.708;2023-08-20T01:06:16;3.20;;;1.80;;
80249;SDS011;69561;37.974;23.708;2023-08-20T01:08:53;2.05;;;1.65;;
80249;SDS011;69561;37.974;23.708;2023-08-20T01:11:36;4.07;;;1.83;;
80249;SDS011;69561;37.974;23.708;2023-08-20T01:14:14;1.75;;;1.65;;
80249;SDS011;69561;37.974;23.708;2023-08-20T01:16:41;2.00;;;1.80;;
80249;SDS011;69561;37.974;23.708;2023-08-20T01:19:07;2.28;;;2.08;;
80249;SDS011;69561;37.974;23.708;2023-08-20T01:21:39;2.30;;;2.05;;
80249;SDS011;69561;37.974;23.708;2023-08-20T01:30:08;2.47;;;1.73;;
80249;SDS011;69561;37.974;23.708;2023-08-20T01:32:35;3.78;;;1.90;;
80249;SDS011;69561;37.974;23.708;2023-08-20T01:35:02;3.63;;;1.83;;
80249;SDS011;69561;37.974;23.708;2023-08-20T01:37:28;3.67;;;2.28;;
80249;SDS011;69561;37.974;23.708;2023-08-20T01:39:54;2.83;;;1.98;;
80249;SDS011;69561;37.974;23.708;2023-08-20T01:42:19;2.28;;;1.90;;
80249;SDS011;69561;37.974;23.708;2023-08-20T01:44:45;2.30;;;2.05;;
80249;SDS011;69561;37.974;23.708;2023-08-20T01:47:11;2.63;;;2.00;;
80249;SDS011;69561;37.974;23.708;2023-08-20T01:49:37;3.72;;;2.13;;
80249;SDS011;69561;37.974;23.708;2023-08-20T01:52:02;2.35;;;1.92;;
80249;SDS011;69561;37.974;23.708;2023-08-20T01:54:29;2.63;;;2.00;;
80249;SDS011;69561;37.974;23.708;2023-08-20T01:56:55;2.40;;;1.90;;
80249;SDS011;69561;37.974;23.708;2023-08-20T01:59:21;2.35;;;2.08;;
80249;SDS011;69561;37.974;23.708;2023-08-20T02:01:48;2.35;;;2.13;;
80249;SDS011;69561;37.974;23.708;2023-08-20T02:04:14;2.83;;;1.90;;
80249;SDS011;69561;37.974;23.708;2023-08-20T02:06:39;3.47;;;2.05;;
80249;SDS011;69561;37.974;23.708;2023-08-20T02:09:05;2.05;;;1.83;;
80249;SDS011;69561;37.974;23.708;2023-08-20T02:11:31;2.47;;;1.95;;
80249;SDS011;69561;37.974;23.708;2023-08-20T02:14:00;2.13;;;1.92;;
80249;SDS011;69561;37.974;23.708;2023-08-20T02:16:26;2.05;;;1.85;;
80249;SDS011;69561;37.974;23.708;2023-08-20T02:18:52;2.35;;;2.10;;
80249;SDS011;69561;37.974;23.708;2023-08-20T02:21:18;2.10;;;1.80;;
80249;SDS011;69561;37.974;23.708;2023-08-20T02:23:43;2.30;;;2.10;;
80249;SDS011;69561;37.974;23.708;2023-08-20T02:26:09;2.20;;;1.80;;
80249;SDS011;69561;37.974;23.708;2023-08-20T02:28:35;2.53;;;2.03;;
80249;SDS011;69561;37.974;23.708;2023-08-20T02:31:03;2.10;;;1.90;;
80249;SDS011;69561;37.974;23.708;2023-08-20T02:33:30;4.65;;;2.03;;
80249;SDS011;69561;37.974;23.708;2023-08-20T02:36:00;2.45;;;2.10;;
80249;SDS011;69561;37.974;23.708;2023-08-20T02:38:28;2.35;;;1.77;;
80249;SDS011;69561;37.974;23.708;2023-08-20T02:40:54;2.78;;;1.90;;
80249;SDS011;69561;37.974;23.708;2023-08-20T02:43:19;2.30;;;2.10;;
80249;SDS011;69561;37.974;23.708;2023-08-20T02:45:45;3.63;;;1.80;;
80249;SDS011;69561;37.974;23.708;2023-08-20T02:48:11;2.25;;;2.05;;
80249;SDS011;69561;37.974;23.708;2023-08-20T02:50:37;2.17;;;1.98;;
80249;SDS011;69561;37.974;23.708;2023-08-20T02:53:03;2.85;;;1.75;;
80249;SDS011;69561;37.974;23.708;2023-08-20T02:55:30;2.17;;;1.92;;
80249;SDS011;69561;37.974;23.708;2023-08-20T02:57:56;1.95;;;1.85;;
80249;SDS011;69561;37.974;23.708;2023-08-20T03:00:22;2.30;;;1.80;;
80249;SDS011;69561;37.974;23.708;2023-08-20T03:02:48;2.25;;;2.05;;
80249;SDS011;69561;37.974;23.708;2023-08-20T03:05:13;2.50;;;2.00;;
80249;SDS011;69561;37.974;23.708;2023-08-20T03:07:39;2.30;;;2.10;;
80249;SDS011;69561;37.974;23.708;2023-08-20T03:10:05;3.22;;;2.17;;
80249;SDS011;69561;37.974;23.708;2023-08-20T03:12:31;2.42;;;2.10;;
80249;SDS011;69561;37.974;23.708;2023-08-20T03:14:58;3.00;;;2.20;;
80249;SDS011;69561;37.974;23.708;2023-08-20T03:17:27;2.38;;;1.90;;
80249;SDS011;69561;37.974;23.708;2023-08-20T03:19:57;2.25;;;2.05;;
80249;SDS011;69561;37.974;23.708;2023-08-20T03:22:24;2.47;;;2.00;;
80249;SDS011;69561;37.974;23.708;2023-08-20T03:24:51;2.25;;;2.05;;
80249;SDS011;69561;37.974;23.708;2023-08-20T03:27:17;2.03;;;1.92;;
80249;SDS011;69561;37.974;23.708;2023-08-20T03:29:43;2.10;;;1.80;;
80249;SDS011;69561;37.974;23.708;2023-08-20T03:32:10;2.45;;;1.80;;
80249;SDS011;69561;37.974;23.708;2023-08-20T03:34:36;2.00;;;1.80;;
80249;SDS011;69561;37.974;23.708;2023-08-20T03:37:04;2.28;;;2.08;;
80249;SDS011;69561;37.974;23.708;2023-08-20T03:39:30;2.10;;;1.90;;
80249;SDS011;69561;37.974;23.708;2023-08-20T03:41:56;2.20;;;2.00;;
80249;SDS011;69561;37.974;23.708;2023-08-20T03:44:22;2.35;;;1.83;;
80249;SDS011;69561;37.974;23.708;2023-08-20T03:46:48;3.15;;;1.95;;
80249;SDS011;69561;37.974;23.708;2023-08-20T03:49:14;2.97;;;2.00;;
80249;SDS011;69561;37.974;23.708;2023-08-20T03:51:40;1.83;;;1.73;;
80249;SDS011;69561;37.974;23.708;2023-08-20T03:54:07;2.08;;;1.88;;
80249;SDS011;69561;37.974;23.708;2023-08-20T03:56:33;2.10;;;1.90;;
80249;SDS011;69561;37.974;23.708;2023-08-20T03:58:59;1.80;;;1.70;;
80249;SDS011;69561;37.974;23.708;2023-08-20T04:01:25;2.20;;;2.00;;
80249;SDS011;69561;37.974;23.708;2023-08-20T04:03:51;2.33;;;2.13;;
80249;SDS011;69561;37.974;23.708;2023-08-20T04:06:16;2.00;;;1.90;;
80249;SDS011;69561;37.974;23.708;2023-08-20T04:08:42;1.90;;;1.80;;
80249;SDS011;69561;37.974;23.708;2023-08-20T04:11:08;2.67;;;2.00;;
80249;SDS011;69561;37.974;23.708;2023-08-20T04:13:34;2.10;;;1.90;;
80249;SDS011;69561;37.974;23.708;2023-08-20T04:15:59;2.33;;;1.88;;
80249;SDS011;69561;37.974;23.708;2023-08-20T04:18:25;2.83;;;2.10;;
80249;SDS011;69561;37.974;23.708;2023-08-20T04:20:52;2.47;;;1.90;;
80249;SDS011;69561;37.974;23.708;2023-08-20T04:23:21;2.03;;;1.88;;
80249;SDS011;69561;37.974;23.708;2023-08-20T04:25:46;1.90;;;1.77;;
80249;SDS011;69561;37.974;23.708;2023-08-20T04:28:12;2.00;;;1.80;;
80249;SDS011;69561;37.974;23.708;2023-08-20T04:30:38;2.60;;;2.03;;
80249;SDS011;69561;37.974;23.708;2023-08-20T04:33:04;2.17;;;1.98;;
80249;SDS011;69561;37.974;23.708;2023-08-20T04:35:30;2.90;;;2.13;;
80249;SDS011;69561;37.974;23.708;2023-08-20T04:37:56;2.30;;;2.10;;
80249;SDS011;69561;37.974;23.708;2023-08-20T04:40:22;1.98;;;1.80;;
80249;SDS011;69561;37.974;23.708;2023-08-20T04:42:48;2.83;;;2.03;;
80249;SDS011;69561;37.974;23.708;2023-08-20T04:45:14;2.28;;;1.92;;
80249;SDS011;69561;37.974;23.708;2023-08-20T04:47:43;1.98;;;1.85;;
80249;SDS011;69561;37.974;23.708;2023-08-20T04:50:09;2.25;;;2.05;;
80249;SDS011;69561;37.974;23.708;2023-08-20T04:52:34;1.90;;;1.80;;
80249;SDS011;69561;37.974;23.708;2023-08-20T04:55:01;2.20;;;1.95;;
80249;SDS011;69561;37.974;23.708;2023-08-20T04:57:27;2.72;;;2.10;;
80249;SDS011;69561;37.974;23.708;2023-08-20T04:59:53;1.95;;;1.85;;
80249;SDS011;69561;37.974;23.708;2023-08-20T05:02:19;2.50;;;2.08;;
80249;SDS011;69561;37.974;23.708;2023-08-20T05:04:45;2.00;;;1.80;;
80249;SDS011;69561;37.974;23.708;2023-08-20T05:07:11;1.83;;;1.73;;
80249;SDS011;69561;37.974;23.708;2023-08-20T05:09:36;1.90;;;1.70;;
80249;SDS011;69561;37.974;23.708;2023-08-20T05:12:02;3.40;;;2.10;;
80249;SDS011;69561;37.974;23.708;2023-08-20T05:14:28;1.90;;;1.70;;
80249;SDS011;69561;37.974;23.708;2023-08-20T05:16:55;1.83;;;1.73;;
80249;SDS011;69561;37.974;23.708;2023-08-20T05:19:21;2.15;;;1.95;;
80249;SDS011;69561;37.974;23.708;2023-08-20T05:21:47;2.08;;;1.88;;
80249;SDS011;69561;37.974;23.708;2023-08-20T05:24:12;2.42;;;2.05;;
80249;SDS011;69561;37.974;23.708;2023-08-20T05:26:38;1.85;;;1.75;;
80249;SDS011;69561;37.974;23.708;2023-08-20T05:29:04;1.95;;;1.77;;
80249;SDS011;69561;37.974;23.708;2023-08-20T05:31:30;2.20;;;2.00;;
80249;SDS011;69561;37.974;23.708;2023-08-20T05:33:55;2.85;;;1.92;;
80249;SDS011;69561;37.974;23.708;2023-08-20T05:36:22;1.92;;;1.83;;
80249;SDS011;69561;37.974;23.708;2023-08-20T05:38:48;1.80;;;1.70;;
80249;SDS011;69561;37.974;23.708;2023-08-20T05:41:14;2.35;;;1.90;;
80249;SDS011;69561;37.974;23.708;2023-08-20T05:43:40;2.55;;;1.88;;
80249;SDS011;69561;37.974;23.708;2023-08-20T05:46:06;2.70;;;2.00;;
80249;SDS011;69561;37.974;23.708;2023-08-20T05:48:31;1.90;;;1.80;;
80249;SDS011;69561;37.974;23.708;2023-08-20T05:50:57;2.00;;;1.83;;
80249;SDS011;69561;37.974;23.708;2023-08-20T05:53:23;1.92;;;1.70;;
80249;SDS011;69561;37.974;23.708;2023-08-20T05:55:49;2.35;;;2.03;;
80249;SDS011;69561;37.974;23.708;2023-08-20T05:58:14;2.22;;;1.80;;
80249;SDS011;69561;37.974;23.708;2023-08-20T06:00:40;2.20;;;2.00;;
80249;SDS011;69561;37.974;23.708;2023-08-20T06:03:06;2.28;;;1.83;;
80249;SDS011;69561;37.974;23.708;2023-08-20T06:05:33;1.70;;;1.60;;
80249;SDS011;69561;37.974;23.708;2023-08-20T06:07:59;2.22;;;1.83;;
80249;SDS011;69561;37.974;23.708;2023-08-20T06:10:25;1.92;;;1.80;;
80249;SDS011;69561;37.974;23.708;2023-08-20T06:12:51;1.90;;;1.70;;
80249;SDS011;69561;37.974;23.708;2023-08-20T06:15:17;2.22;;;2.03;;
80249;SDS011;69561;37.974;23.708;2023-08-20T06:17:43;1.92;;;1.83;;
80249;SDS011;69561;37.974;23.708;2023-08-20T06:20:09;2.20;;;2.00;;
80249;SDS011;69561;37.974;23.708;2023-08-20T06:22:36;2.50;;;2.15;;
80249;SDS011;69561;37.974;23.708;2023-08-20T06:25:03;2.13;;;2.00;;
80249;SDS011;69561;37.974;23.708;2023-08-20T06:27:29;1.70;;;1.60;;
80249;SDS011;69561;37.974;23.708;2023-08-20T06:29:55;3.03;;;2.08;;
80249;SDS011;69561;37.974;23.708;2023-08-20T06:32:21;3.00;;;1.95;;
80249;SDS011;69561;37.974;23.708;2023-08-20T06:34:48;2.10;;;1.90;;
80249;SDS011;69561;37.974;23.708;2023-08-20T06:37:14;2.13;;;1.83;;
80249;SDS011;69561;37.974;23.708;2023-08-20T06:39:39;3.15;;;1.90;;
80249;SDS011;69561;37.974;23.708;2023-08-20T06:42:05;2.33;;;2.10;;
80249;SDS011;69561;37.974;23.708;2023-08-20T06:44:31;2.08;;;1.90;;
80249;SDS011;69561;37.974;23.708;2023-08-20T06:46:56;2.67;;;1.70;;
80249;SDS011;69561;37.974;23.708;2023-08-20T06:49:22;2.13;;;1.83;;
80249;SDS011;69561;37.974;23.708;2023-08-20T06:51:48;1.92;;;1.65;;
80249;SDS011;69561;37.974;23.708;2023-08-20T06:54:14;2.08;;;1.83;;
80249;SDS011;69561;37.974;23.708;2023-08-20T06:56:41;2.50;;;2.15;;
80249;SDS011;69561;37.974;23.708;2023-08-20T06:59:06;2.15;;;1.70;;
80249;SDS011;69561;37.974;23.708;2023-08-20T07:01:32;2.08;;;1.85;;
80249;SDS011;69561;37.974;23.708;2023-08-20T07:03:58;2.17;;;1.98;;
80249;SDS011;69561;37.974;23.708;2023-08-20T07:06:24;2.15;;;1.83;;
80249;SDS011;69561;37.974;23.708;2023-08-20T07:08:50;2.13;;;1.80;;
80249;SDS011;69561;37.974;23.708;2023-08-20T07:11:16;1.92;;;1.80;;
80249;SDS011;69561;37.974;23.708;2023-08-20T07:13:42;1.83;;;1.73;;
80249;SDS011;69561;37.974;23.708;2023-08-20T07:16:07;2.10;;;1.90;;
80249;SDS011;69561;37.974;23.708;2023-08-20T07:18:33;2.58;;;1.90;;
80249;SDS011;69561;37.974;23.708;2023-08-20T07:20:59;2.53;;;1.95;;
80249;SDS011;69561;37.974;23.708;2023-08-20T07:23:25;3.40;;;1.90;;
80249;SDS011;69561;37.974;23.708;2023-08-20T07:25:51;2.65;;;2.20;;
80249;SDS011;69561;37.974;23.708;2023-08-20T07:28:17;2.90;;;2.28;;
80249;SDS011;69561;37.974;23.708;2023-08-20T07:30:51;2.22;;;2.03;;
80249;SDS011;69561;37.974;23.708;2023-08-20T07:33:17;2.17;;;1.90;;
80249;SDS011;69561;37.974;23.708;2023-08-20T07:35:43;2.35;;;2.15;;
80249;SDS011;69561;37.974;23.708;2023-08-20T07:38:09;2.72;;;2.05;;
80249;SDS011;69561;37.974;23.708;2023-08-20T07:40:35;4.75;;;2.30;;
80249;SDS011;69561;37.974;23.708;2023-08-20T07:43:01;2.35;;;2.15;;
80249;SDS011;69561;37.974;23.708;2023-08-20T07:45:27;3.10;;;2.30;;
80249;SDS011;69561;37.974;23.708;2023-08-20T07:47:53;2.45;;;2.10;;
80249;SDS011;69561;37.974;23.708;2023-08-20T07:50:18;3.00;;;2.20;;
80249;SDS011;69561;37.974;23.708;2023-08-20T07:52:44;3.70;;;2.20;;
80249;SDS011;69561;37.974;23.708;2023-08-20T07:55:10;3.45;;;2.30;;
80249;SDS011;69561;37.974;23.708;2023-08-20T07:57:36;3.10;;;2.22;;
80249;SDS011;69561;37.974;23.708;2023-08-20T08:00:01;2.65;;;2.28;;
80249;SDS011;69561;37.974;23.708;2023-08-20T08:02:29;2.45;;;2.25;;
80249;SDS011;69561;37.974;23.708;2023-08-20T08:04:55;4.57;;;2.30;;
80249;SDS011;69561;37.974;23.708;2023-08-20T08:07:20;3.92;;;2.40;;
80249;SDS011;69561;37.974;23.708;2023-08-20T08:09:46;2.60;;;2.38;;
80249;SDS011;69561;37.974;23.708;2023-08-20T08:12:12;2.63;;;2.28;;
80249;SDS011;69561;37.974;23.708;2023-08-20T08:14:38;2.70;;;2.40;;
80249;SDS011;69561;37.974;23.708;2023-08-20T08:17:03;3.08;;;2.15;;
80249;SDS011;69561;37.974;23.708;2023-08-20T08:19:29;3.97;;;2.33;;
80249;SDS011;69561;37.974;23.708;2023-08-20T08:21:56;2.30;;;2.10;;
80249;SDS011;69561;37.974;23.708;2023-08-20T08:24:21;2.58;;;2.38;;
80249;SDS011;69561;37.974;23.708;2023-08-20T08:26:47;2.67;;;2.47;;
80249;SDS011;69561;37.974;23.708;2023-08-20T08:29:13;2.47;;;2.28;;
80249;SDS011;69561;37.974;23.708;2023-08-20T08:31:38;2.78;;;2.55;;
80249;SDS011;69561;37.974;23.708;2023-08-20T08:34:04;3.70;;;2.78;;
80249;SDS011;69561;37.974;23.708;2023-08-20T08:36:30;3.38;;;2.53;;
80249;SDS011;69561;37.974;23.708;2023-08-20T08:38:56;4.97;;;3.03;;
80249;SDS011;69561;37.974;23.708;2023-08-20T08:41:22;3.50;;;2.60;;
80249;SDS011;69561;37.974;23.708;2023-08-20T08:43:50;5.10;;;2.60;;
80249;SDS011;69561;37.974;23.708;2023-08-20T08:46:16;5.65;;;2.65;;
80249;SDS011;69561;37.974;23.708;2023-08-20T08:48:44;3.28;;;2.78;;
80249;SDS011;69561;37.974;23.708;2023-08-20T08:51:13;2.95;;;2.70;;
80249;SDS011;69561;37.974;23.708;2023-08-20T08:53:41;3.95;;;2.75;;
80249;SDS011;69561;37.974;23.708;2023-08-20T08:56:09;5.10;;;2.60;;
80249;SDS011;69561;37.974;23.708;2023-08-20T08:58:35;3.13;;;2.80;;
80249;SDS011;69561;37.974;23.708;2023-08-20T09:01:01;3.78;;;3.00;;
80249;SDS011;69561;37.974;23.708;2023-08-20T09:03:27;4.57;;;2.90;;
80249;SDS011;69561;37.974;23.708;2023-08-20T09:05:58;3.42;;;2.80;;
80249;SDS011;69561;37.974;23.708;2023-08-20T09:08:28;4.75;;;3.08;;
80249;SDS011;69561;37.974;23.708;2023-08-20T09:10:55;3.65;;;3.15;;
80249;SDS011;69561;37.974;23.708;2023-08-20T09:13:23;4.15;;;3.22;;
80249;SDS011;69561;37.974;23.708;2023-08-20T09:15:53;3.20;;;2.80;;
80249;SDS011;69561;37.974;23.708;2023-08-20T09:18:19;3.40;;;3.10;;
80249;SDS011;69561;37.974;23.708;2023-08-20T09:20:47;3.88;;;2.80;;
80249;SDS011;69561;37.974;23.708;2023-08-20T09:23:16;3.88;;;3.47;;
80249;SDS011;69561;37.974;23.708;2023-08-20T09:25:42;3.22;;;2.92;;
80249;SDS011;69561;37.974;23.708;2023-08-20T09:28:09;3.72;;;3.20;;
80249;SDS011;69561;37.974;23.708;2023-08-20T09:30:35;3.72;;;3.13;;
80249;SDS011;69561;37.974;23.708;2023-08-20T09:33:09;4.38;;;3.10;;
80249;SDS011;69561;37.974;23.708;2023-08-20T09:35:36;4.25;;;3.00;;
80249;SDS011;69561;37.974;23.708;2023-08-20T09:38:05;3.25;;;2.95;;
80249;SDS011;69561;37.974;23.708;2023-08-20T09:40:31;9.18;;;3.28;;
80249;SDS011;69561;37.974;23.708;2023-08-20T09:42:57;2.90;;;2.70;;
80249;SDS011;69561;37.974;23.708;2023-08-20T09:45:27;5.18;;;3.40;;
80249;SDS011;69561;37.974;23.708;2023-08-20T09:47:57;4.10;;;3.28;;
80249;SDS011;69561;37.974;23.708;2023-08-20T09:50:24;3.25;;;2.90;;
80249;SDS011;69561;37.974;23.708;2023-08-20T09:55:29;3.88;;;3.20;;
80249;SDS011;69561;37.974;23.708;2023-08-20T09:57:59;3.70;;;3.00;;
80249;SDS011;69561;37.974;23.708;2023-08-20T10:00:26;4.38;;;3.30;;
80249;SDS011;69561;37.974;23.708;2023-08-20T10:02:53;3.38;;;3.00;;
80249;SDS011;69561;37.974;23.708;2023-08-20T10:05:19;4.47;;;3.25;;
80249;SDS011;69561;37.974;23.708;2023-08-20T10:07:47;4.10;;;3.10;;
80249;SDS011;69561;37.974;23.708;2023-08-20T10:10:14;3.60;;;3.17;;
80249;SDS011;69561;37.974;23.708;2023-08-20T10:12:41;6.80;;;3.50;;
80249;SDS011;69561;37.974;23.708;2023-08-20T10:15:09;3.70;;;3.35;;
80249;SDS011;69561;37.974;23.708;2023-08-20T10:17:36;4.03;;;3.40;;
80249;SDS011;69561;37.974;23.708;2023-08-20T10:20:04;4.68;;;3.50;;
80249;SDS011;69561;37.974;23.708;2023-08-20T10:22:35;5.05;;;3.20;;
80249;SDS011;69561;37.974;23.708;2023-08-20T10:25:04;4.40;;;3.10;;
80249;SDS011;69561;37.974;23.708;2023-08-20T10:27:35;4.38;;;3.25;;
80249;SDS011;69561;37.974;23.708;2023-08-20T10:30:07;4.35;;;3.38;;
80249;SDS011;69561;37.974;23.708;2023-08-20T10:32:48;4.22;;;3.10;;
80249;SDS011;69561;37.974;23.708;2023-08-20T10:35:16;5.85;;;3.63;;
80249;SDS011;69561;37.974;23.708;2023-08-20T10:38:11;5.03;;;3.38;;
80249;SDS011;69561;37.974;23.708;2023-08-20T10:48:41;3.88;;;3.20;;
80249;SDS011;69561;37.974;23.708;2023-08-20T10:53:48;4.60;;;3.15;;
80249;SDS011;69561;37.974;23.708;2023-08-20T10:56:43;3.63;;;3.05;;
80249;SDS011;69561;37.974;23.708;2023-08-20T10:59:16;3.72;;;3.20;;
80249;SDS011;69561;37.974;23.708;2023-08-20T11:01:46;3.78;;;3.38;;
80249;SDS011;69561;37.974;23.708;2023-08-20T11:04:15;5.53;;;3.42;;
80249;SDS011;69561;37.974;23.708;2023-08-20T11:06:41;4.05;;;3.42;;
80249;SDS011;69561;37.974;23.708;2023-08-20T11:09:08;5.30;;;3.28;;
80249;SDS011;69561;37.974;23.708;2023-08-20T11:11:37;5.47;;;3.70;;
80249;SDS011;69561;37.974;23.708;2023-08-20T11:14:04;4.07;;;3.42;;
80249;SDS011;69561;37.974;23.708;2023-08-20T11:16:32;4.82;;;3.35;;
80249;SDS011;69561;37.974;23.708;2023-08-20T11:18:59;3.80;;;3.40;;
80249;SDS011;69561;37.974;23.708;2023-08-20T11:21:25;5.07;;;3.45;;
80249;SDS011;69561;37.974;23.708;2023-08-20T11:23:51;5.15;;;3.42;;
80249;SDS011;69561;37.974;23.708;2023-08-20T11:26:17;5.85;;;3.53;;
80249;SDS011;69561;37.974;23.708;2023-08-20T11:28:46;4.60;;;3.30;;
80249;SDS011;69561;37.974;23.708;2023-08-20T11:31:12;4.70;;;3.42;;
80249;SDS011;69561;37.974;23.708;2023-08-20T11:33:38;4.63;;;3.53;;
80249;SDS011;69561;37.974;23.708;2023-08-20T11:36:05;5.43;;;3.38;;
80249;SDS011;69561;37.974;23.708;2023-08-20T11:38:31;5.65;;;3.60;;
80249;SDS011;69561;37.974;23.708;2023-08-20T11:41:00;5.07;;;3.50;;
80249;SDS011;69561;37.974;23.708;2023-08-20T11:43:29;5.80;;;3.60;;
80249;SDS011;69561;37.974;23.708;2023-08-20T11:45:55;5.10;;;3.22;;
80249;SDS011;69561;37.974;23.708;2023-08-20T11:48:21;6.07;;;3.42;;
80249;SDS011;69561;37.974;23.708;2023-08-20T11:50:48;6.40;;;3.35;;
80249;SDS011;69561;37.974;23.708;2023-08-20T11:53:15;6.10;;;3.40;;
80249;SDS011;69561;37.974;23.708;2023-08-20T11:55:48;9.75;;;3.33;;
80249;SDS011;69561;37.974;23.708;2023-08-20T11:58:14;5.47;;;2.97;;
80249;SDS011;69561;37.974;23.708;2023-08-20T12:00:40;5.18;;;3.35;;
80249;SDS011;69561;37.974;23.708;2023-08-20T12:03:07;3.55;;;3.15;;
80249;SDS011;69561;37.974;23.708;2023-08-20T12:05:34;4.80;;;3.20;;
80249;SDS011;69561;37.974;23.708;2023-08-20T12:08:03;4.85;;;3.03;;
80249;SDS011;69561;37.974;23.708;2023-08-20T12:10:29;5.35;;;3.33;;
80249;SDS011;69561;37.974;23.708;2023-08-20T12:12:59;5.85;;;3.22;;
80249;SDS011;69561;37.974;23.708;2023-08-20T12:15:25;6.97;;;3.47;;
80249;SDS011;69561;37.974;23.708;2023-08-20T12:18:24;8.63;;;3.17;;
80249;SDS011;69561;37.974;23.708;2023-08-20T12:20:42;5.22;;;3.35;;
80249;SDS011;69561;37.974;23.708;2023-08-20T12:23:08;3.60;;;3.00;;
80249;SDS011;69561;37.974;23.708;2023-08-20T12:25:34;5.72;;;3.03;;
80249;SDS011;69561;37.974;23.708;2023-08-20T12:28:01;4.43;;;3.20;;
80249;SDS011;69561;37.974;23.708;2023-08-20T12:30:29;5.78;;;3.25;;
80249;SDS011;69561;37.974;23.708;2023-08-20T12:32:56;4.63;;;3.33;;
80249;SDS011;69561;37.974;23.708;2023-08-20T12:35:21;6.30;;;3.63;;
80249;SDS011;69561;37.974;23.708;2023-08-20T12:37:47;5.25;;;3.20;;
80249;SDS011;69561;37.974;23.708;2023-08-20T12:40:13;6.07;;;3.40;;
80249;SDS011;69561;37.974;23.708;2023-08-20T12:42:39;4.45;;;3.30;;
80249;SDS011;69561;37.974;23.708;2023-08-20T12:45:05;4.72;;;3.22;;
80249;SDS011;69561;37.974;23.708;2023-08-20T12:47:32;3.78;;;3.30;;
80249;SDS011;69561;37.974;23.708;2023-08-20T12:49:58;6.57;;;3.67;;
80249;SDS011;69561;37.974;23.708;2023-08-20T12:52:24;5.57;;;3.40;;
80249;SDS011;69561;37.974;23.708;2023-08-20T12:54:50;7.00;;;3.47;;
80249;SDS011;69561;37.974;23.708;2023-08-20T12:57:15;8.23;;;3.63;;
80249;SDS011;69561;37.974;23.708;2023-08-20T12:59:41;6.05;;;3.40;;
80249;SDS011;69561;37.974;23.708;2023-08-20T13:02:07;5.57;;;3.10;;
80249;SDS011;69561;37.974;23.708;2023-08-20T13:04:33;5.43;;;3.28;;
80249;SDS011;69561;37.974;23.708;2023-08-20T13:06:59;8.02;;;3.67;;
80249;SDS011;69561;37.974;23.708;2023-08-20T13:09:26;4.13;;;3.38;;
80249;SDS011;69561;37.974;23.708;2023-08-20T13:11:53;4.75;;;3.40;;
80249;SDS011;69561;37.974;23.708;2023-08-20T13:14:22;4.43;;;3.40;;
80249;SDS011;69561;37.974;23.708;2023-08-20T13:16:48;4.53;;;3.40;;
80249;SDS011;69561;37.974;23.708;2023-08-20T13:19:14;5.00;;;3.55;;
80249;SDS011;69561;37.974;23.708;2023-08-20T13:21:40;7.75;;;3.50;;
80249;SDS011;69561;37.974;23.708;2023-08-20T13:24:06;5.20;;;3.55;;
80249;SDS011;69561;37.974;23.708;2023-08-20T13:26:33;5.13;;;3.30;;
80249;SDS011;69561;37.974;23.708;2023-08-20T13:28:59;6.20;;;3.55;;
80249;SDS011;69561;37.974;23.708;2023-08-20T13:31:25;6.13;;;3.60;;
80249;SDS011;69561;37.974;23.708;2023-08-20T13:33:51;5.68;;;3.53;;
80249;SDS011;69561;37.974;23.708;2023-08-20T13:36:16;5.22;;;3.60;;
80249;SDS011;69561;37.974;23.708;2023-08-20T13:38:42;5.63;;;3.13;;
80249;SDS011;69561;37.974;23.708;2023-08-20T13:41:08;4.65;;;3.35;;
80249;SDS011;69561;37.974;23.708;2023-08-20T13:43:34;6.13;;;3.63;;
80249;SDS011;69561;37.974;23.708;2023-08-20T13:46:00;5.13;;;3.30;;
80249;SDS011;69561;37.974;23.708;2023-08-20T13:48:26;5.70;;;3.50;;
80249;SDS011;69561;37.974;23.708;2023-08-20T13:50:52;5.47;;;3.40;;
80249;SDS011;69561;37.974;23.708;2023-08-20T13:53:18;4.50;;;3.20;;
80249;SDS011;69561;37.974;23.708;2023-08-20T13:55:43;5.47;;;3.45;;
80249;SDS011;69561;37.974;23.708;2023-08-20T13:58:09;4.45;;;3.15;;
80249;SDS011;69561;37.974;23.708;2023-08-20T14:00:35;4.50;;;3.38;;
80249;SDS011;69561;37.974;23.708;2023-08-20T14:03:01;4.25;;;3.47;;
80249;SDS011;69561;37.974;23.708;2023-08-20T14:05:26;5.35;;;3.53;;
80249;SDS011;69561;37.974;23.708;2023-08-20T14:07:54;5.70;;;3.58;;
80249;SDS011;69561;37.974;23.708;2023-08-20T14:10:19;7.13;;;3.40;;
80249;SDS011;69561;37.974;23.708;2023-08-20T14:12:46;4.55;;;3.28;;
80249;SDS011;69561;37.974;23.708;2023-08-20T14:15:11;5.40;;;3.85;;
80249;SDS011;69561;37.974;23.708;2023-08-20T14:17:37;6.55;;;3.33;;
80249;SDS011;69561;37.974;23.708;2023-08-20T14:20:03;5.13;;;3.30;;
80249;SDS011;69561;37.974;23.708;2023-08-20T14:22:31;5.15;;;3.50;;
80249;SDS011;69561;37.974;23.708;2023-08-20T14:24:57;4.60;;;3.30;;
80249;SDS011;69561;37.974;23.708;2023-08-20T14:27:23;6.20;;;3.55;;
80249;SDS011;69561;37.974;23.708;2023-08-20T14:29:48;8.32;;;3.60;;
80249;SDS011;69561;37.974;23.708;2023-08-20T14:32:14;5.68;;;3.70;;
80249;SDS011;69561;37.974;23.708;2023-08-20T14:34:40;5.20;;;3.63;;
80249;SDS011;69561;37.974;23.708;2023-08-20T14:37:05;6.10;;;3.50;;
80249;SDS011;69561;37.974;23.708;2023-08-20T14:39:31;4.18;;;3.38;;
80249;SDS011;69561;37.974;23.708;2023-08-20T14:41:58;6.30;;;3.70;;
80249;SDS011;69561;37.974;23.708;2023-08-20T14:44:24;4.75;;;3.45;;
80249;SDS011;69561;37.974;23.708;2023-08-20T14:46:50;9.27;;;3.80;;
80249;SDS011;69561;37.974;23.708;2023-08-20T14:49:15;4.93;;;3.78;;
80249;SDS011;69561;37.974;23.708;2023-08-20T14:51:43;7.05;;;4.00;;